sensor_id;sensor_type;location;lat;lon;timestamp;P1;durP1;ratioP1;P2;durP2;ratioP2
17382;SDS011;8809;51.892;8.384;2023-01-25T00:01:33;18.15;;;11.90;;
17382;SDS011;8809;51.892;8.384;2023-01-25T00:04:01;23.98;;;14.68;;
17382;SDS011;8809;51.892;8.384;2023-01-25T00:06:28;18.67;;;11.32;;
17382;SDS011;8809;51.892;8.384;2023-01-25T00:08:55;22.95;;;14.15;;
17382;SDS011;8809;51.892;8.384;2023-01-25T00:11:26;18.83;;;12.45;;
17382;SDS011;8809;51.892;8.384;2023-01-25T00:14:03;20.95;;;13.63;;
17382;SDS011;8809;51.892;8.384;2023-01-25T00:16:33;19.33;;;13.20;;
17382;SDS011;8809;51.892;8.384;2023-01-25T00:19:00;17.23;;;12.13;;
17382;SDS011;8809;51.892;8.384;2023-01-25T00:21:27;19.67;;;12.23;;
17382;SDS011;8809;51.892;8.384;2023-01-25T00:23:53;21.65;;;13.25;;
17382;SDS011;8809;51.892;8.384;2023-01-25T00:26:28;18.58;;;11.75;;
17382;SDS011;8809;51.892;8.384;2023-01-25T00:28:55;24.58;;;14.75;;
17382;SDS011;8809;51.892;8.384;2023-01-25T00:31:31;21.85;;;13.60;;
17382;SDS011;8809;51.892;8.384;2023-01-25T00:34:28;21.10;;;12.63;;
17382;SDS011;8809;51.892;8.384;2023-01-25T00:37:13;23.85;;;14.82;;
17382;SDS011;8809;51.892;8.384;2023-01-25T00:39:46;24.33;;;14.57;;
17382;SDS011;8809;51.892;8.384;2023-01-25T00:42:14;17.42;;;11.63;;
17382;SDS011;8809;51.892;8.384;2023-01-25T00:44:43;18.55;;;11.05;;
17382;SDS011;8809;51.892;8.384;2023-01-25T00:47:12;17.92;;;11.27;;
17382;SDS011;8809;51.892;8.384;2023-01-25T00:49:40;22.58;;;14.70;;
17382;SDS011;8809;51.892;8.384;2023-01-25T00:52:08;20.02;;;12.95;;
17382;SDS011;8809;51.892;8.384;2023-01-25T00:54:41;21.80;;;14.43;;
17382;SDS011;8809;51.892;8.384;2023-01-25T00:57:08;16.83;;;11.30;;
17382;SDS011;8809;51.892;8.384;2023-01-25T00:59:38;17.15;;;10.88;;
17382;SDS011;8809;51.892;8.384;2023-01-25T01:02:11;19.13;;;12.77;;
17382;SDS011;8809;51.892;8.384;2023-01-25T01:04:39;19.60;;;12.73;;
17382;SDS011;8809;51.892;8.384;2023-01-25T01:07:06;27.27;;;16.73;;
17382;SDS011;8809;51.892;8.384;2023-01-25T01:09:43;22.02;;;12.90;;
17382;SDS011;8809;51.892;8.384;2023-01-25T01:12:10;19.80;;;13.15;;
17382;SDS011;8809;51.892;8.384;2023-01-25T01:14:40;17.98;;;11.48;;
17382;SDS011;8809;51.892;8.384;2023-01-25T01:17:07;17.40;;;10.93;;
17382;SDS011;8809;51.892;8.384;2023-01-25T01:19:41;15.98;;;10.43;;
17382;SDS011;8809;51.892;8.384;2023-01-25T01:22:09;17.40;;;10.27;;
17382;SDS011;8809;51.892;8.384;2023-01-25T01:27:27;16.98;;;11.73;;
17382;SDS011;8809;51.892;8.384;2023-01-25T01:29:56;18.98;;;11.00;;
17382;SDS011;8809;51.892;8.384;2023-01-25T01:32:40;17.85;;;10.85;;
17382;SDS011;8809;51.892;8.384;2023-01-25T01:35:14;24.73;;;15.23;;
17382;SDS011;8809;51.892;8.384;2023-01-25T01:37:41;19.83;;;12.85;;
17382;SDS011;8809;51.892;8.384;2023-01-25T01:40:09;28.45;;;16.25;;
17382;SDS011;8809;51.892;8.384;2023-01-25T01:45:47;22.00;;;13.20;;
17382;SDS011;8809;51.892;8.384;2023-01-25T01:48:17;16.00;;;11.02;;
17382;SDS011;8809;51.892;8.384;2023-01-25T01:50:50;18.60;;;11.35;;
17382;SDS011;8809;51.892;8.384;2023-01-25T01:53:19;17.52;;;11.63;;
17382;SDS011;8809;51.892;8.384;2023-01-25T01:55:52;21.65;;;13.48;;
17382;SDS011;8809;51.892;8.384;2023-01-25T01:58:25;17.05;;;10.77;;
17382;SDS011;8809;51.892;8.384;2023-01-25T02:01:02;19.98;;;12.43;;
17382;SDS011;8809;51.892;8.384;2023-01-25T02:03:34;18.88;;;11.55;;
17382;SDS011;8809;51.892;8.384;2023-01-25T02:06:28;17.73;;;11.23;;
17382;SDS011;8809;51.892;8.384;2023-01-25T02:09:00;18.23;;;11.38;;
17382;SDS011;8809;51.892;8.384;2023-01-25T02:11:31;19.17;;;12.38;;
17382;SDS011;8809;51.892;8.384;2023-01-25T02:14:02;20.02;;;11.75;;
17382;SDS011;8809;51.892;8.384;2023-01-25T02:16:32;18.00;;;11.40;;
17382;SDS011;8809;51.892;8.384;2023-01-25T02:18:59;20.77;;;12.90;;
17382;SDS011;8809;51.892;8.384;2023-01-25T02:24:27;17.58;;;11.85;;
17382;SDS011;8809;51.892;8.384;2023-01-25T02:27:06;19.95;;;11.52;;
17382;SDS011;8809;51.892;8.384;2023-01-25T02:29:33;20.75;;;12.02;;
17382;SDS011;8809;51.892;8.384;2023-01-25T02:32:03;22.45;;;13.10;;
17382;SDS011;8809;51.892;8.384;2023-01-25T02:34:31;27.15;;;16.15;;
17382;SDS011;8809;51.892;8.384;2023-01-25T02:37:01;26.77;;;15.90;;
17382;SDS011;8809;51.892;8.384;2023-01-25T02:39:28;25.98;;;16.10;;
17382;SDS011;8809;51.892;8.384;2023-01-25T02:41:58;23.38;;;14.73;;
17382;SDS011;8809;51.892;8.384;2023-01-25T02:44:27;25.40;;;16.05;;
17382;SDS011;8809;51.892;8.384;2023-01-25T02:46:57;21.83;;;13.75;;
17382;SDS011;8809;51.892;8.384;2023-01-25T02:49:26;20.35;;;12.50;;
17382;SDS011;8809;51.892;8.384;2023-01-25T02:51:53;25.23;;;15.25;;
17382;SDS011;8809;51.892;8.384;2023-01-25T02:54:22;20.48;;;12.18;;
17382;SDS011;8809;51.892;8.384;2023-01-25T02:56:55;26.27;;;15.75;;
17382;SDS011;8809;51.892;8.384;2023-01-25T02:59:39;28.23;;;16.95;;
17382;SDS011;8809;51.892;8.384;2023-01-25T03:02:06;25.55;;;15.38;;
17382;SDS011;8809;51.892;8.384;2023-01-25T03:05:00;23.67;;;13.88;;
17382;SDS011;8809;51.892;8.384;2023-01-25T03:12:13;19.38;;;12.15;;
17382;SDS011;8809;51.892;8.384;2023-01-25T03:15:30;21.92;;;12.43;;
17382;SDS011;8809;51.892;8.384;2023-01-25T03:18:36;20.85;;;12.80;;
17382;SDS011;8809;51.892;8.384;2023-01-25T03:26:18;27.38;;;15.05;;
17382;SDS011;8809;51.892;8.384;2023-01-25T03:28:50;27.15;;;16.55;;
17382;SDS011;8809;51.892;8.384;2023-01-25T03:31:32;24.10;;;14.27;;
17382;SDS011;8809;51.892;8.384;2023-01-25T03:34:38;22.88;;;13.02;;
17382;SDS011;8809;51.892;8.384;2023-01-25T03:37:27;18.88;;;11.50;;
17382;SDS011;8809;51.892;8.384;2023-01-25T03:40:28;28.02;;;14.80;;
17382;SDS011;8809;51.892;8.384;2023-01-25T03:43:18;22.13;;;13.20;;
17382;SDS011;8809;51.892;8.384;2023-01-25T03:46:19;24.10;;;13.57;;
17382;SDS011;8809;51.892;8.384;2023-01-25T03:48:48;17.65;;;11.07;;
17382;SDS011;8809;51.892;8.384;2023-01-25T03:51:17;29.65;;;17.08;;
17382;SDS011;8809;51.892;8.384;2023-01-25T03:53:53;26.83;;;15.57;;
17382;SDS011;8809;51.892;8.384;2023-01-25T03:56:44;27.02;;;16.30;;
17382;SDS011;8809;51.892;8.384;2023-01-25T03:59:46;29.13;;;16.40;;
17382;SDS011;8809;51.892;8.384;2023-01-25T04:02:23;24.48;;;15.13;;
17382;SDS011;8809;51.892;8.384;2023-01-25T04:05:18;26.98;;;15.55;;
17382;SDS011;8809;51.892;8.384;2023-01-25T04:07:55;23.15;;;13.43;;
17382;SDS011;8809;51.892;8.384;2023-01-25T04:11:16;28.83;;;16.05;;
17382;SDS011;8809;51.892;8.384;2023-01-25T04:16:14;27.35;;;15.57;;
17382;SDS011;8809;51.892;8.384;2023-01-25T04:24:18;30.63;;;16.75;;
17382;SDS011;8809;51.892;8.384;2023-01-25T04:27:08;27.08;;;15.25;;
17382;SDS011;8809;51.892;8.384;2023-01-25T04:30:06;29.33;;;15.35;;
17382;SDS011;8809;51.892;8.384;2023-01-25T04:32:46;28.15;;;16.17;;
17382;SDS011;8809;51.892;8.384;2023-01-25T04:38:21;20.63;;;11.45;;
17382;SDS011;8809;51.892;8.384;2023-01-25T04:43:44;22.02;;;11.30;;
17382;SDS011;8809;51.892;8.384;2023-01-25T04:46:37;29.52;;;15.02;;
17382;SDS011;8809;51.892;8.384;2023-01-25T04:49:06;22.95;;;12.45;;
17382;SDS011;8809;51.892;8.384;2023-01-25T04:51:33;19.17;;;10.98;;
17382;SDS011;8809;51.892;8.384;2023-01-25T04:54:09;22.05;;;12.15;;
17382;SDS011;8809;51.892;8.384;2023-01-25T05:07:54;21.27;;;10.73;;
17382;SDS011;8809;51.892;8.384;2023-01-25T05:10:24;19.25;;;11.18;;
17382;SDS011;8809;51.892;8.384;2023-01-25T05:12:57;19.90;;;10.98;;
17382;SDS011;8809;51.892;8.384;2023-01-25T05:15:24;20.95;;;12.48;;
17382;SDS011;8809;51.892;8.384;2023-01-25T05:17:56;22.17;;;12.90;;
17382;SDS011;8809;51.892;8.384;2023-01-25T05:20:26;21.08;;;12.30;;
17382;SDS011;8809;51.892;8.384;2023-01-25T05:22:59;27.67;;;15.43;;
17382;SDS011;8809;51.892;8.384;2023-01-25T05:25:29;32.42;;;17.20;;
17382;SDS011;8809;51.892;8.384;2023-01-25T05:28:14;30.70;;;15.95;;
17382;SDS011;8809;51.892;8.384;2023-01-25T05:30:41;31.75;;;17.02;;
17382;SDS011;8809;51.892;8.384;2023-01-25T05:33:10;32.88;;;17.90;;
17382;SDS011;8809;51.892;8.384;2023-01-25T05:39:06;25.92;;;14.25;;
17382;SDS011;8809;51.892;8.384;2023-01-25T05:42:30;33.20;;;16.30;;
17382;SDS011;8809;51.892;8.384;2023-01-25T05:48:23;27.38;;;14.30;;
17382;SDS011;8809;51.892;8.384;2023-01-25T05:51:00;32.05;;;16.25;;
17382;SDS011;8809;51.892;8.384;2023-01-25T05:53:28;21.23;;;11.50;;
17382;SDS011;8809;51.892;8.384;2023-01-25T05:56:40;22.38;;;11.68;;
17382;SDS011;8809;51.892;8.384;2023-01-25T06:02:34;32.75;;;16.25;;
17382;SDS011;8809;51.892;8.384;2023-01-25T06:05:44;31.17;;;15.05;;
17382;SDS011;8809;51.892;8.384;2023-01-25T06:08:28;29.63;;;14.85;;
17382;SDS011;8809;51.892;8.384;2023-01-25T06:10:56;29.27;;;14.18;;
17382;SDS011;8809;51.892;8.384;2023-01-25T06:13:50;27.77;;;13.63;;
17382;SDS011;8809;51.892;8.384;2023-01-25T06:19:33;31.15;;;14.63;;
17382;SDS011;8809;51.892;8.384;2023-01-25T06:22:01;27.75;;;14.43;;
17382;SDS011;8809;51.892;8.384;2023-01-25T06:24:45;31.73;;;15.50;;
17382;SDS011;8809;51.892;8.384;2023-01-25T06:27:20;27.90;;;15.18;;
17382;SDS011;8809;51.892;8.384;2023-01-25T06:29:58;25.23;;;13.27;;
17382;SDS011;8809;51.892;8.384;2023-01-25T06:33:46;31.75;;;16.17;;
17382;SDS011;8809;51.892;8.384;2023-01-25T06:39:37;22.58;;;11.00;;
17382;SDS011;8809;51.892;8.384;2023-01-25T06:42:18;19.80;;;10.57;;
17382;SDS011;8809;51.892;8.384;2023-01-25T06:45:15;23.48;;;11.40;;
17382;SDS011;8809;51.892;8.384;2023-01-25T06:47:48;21.73;;;10.90;;
17382;SDS011;8809;51.892;8.384;2023-01-25T06:51:04;18.75;;;9.70;;
17382;SDS011;8809;51.892;8.384;2023-01-25T06:53:33;20.30;;;11.38;;
17382;SDS011;8809;51.892;8.384;2023-01-25T06:56:27;22.13;;;11.63;;
17382;SDS011;8809;51.892;8.384;2023-01-25T06:59:36;20.35;;;10.70;;
17382;SDS011;8809;51.892;8.384;2023-01-25T07:03:31;19.98;;;11.10;;
17382;SDS011;8809;51.892;8.384;2023-01-25T07:05:19;22.45;;;11.80;;
17382;SDS011;8809;51.892;8.384;2023-01-25T07:20:29;42.08;;;19.35;;
17382;SDS011;8809;51.892;8.384;2023-01-25T07:23:24;40.13;;;20.05;;
17382;SDS011;8809;51.892;8.384;2023-01-25T07:26:14;40.33;;;19.23;;
17382;SDS011;8809;51.892;8.384;2023-01-25T07:29:24;39.03;;;17.70;;
17382;SDS011;8809;51.892;8.384;2023-01-25T07:46:19;31.20;;;14.85;;
17382;SDS011;8809;51.892;8.384;2023-01-25T07:48:49;38.25;;;17.05;;
17382;SDS011;8809;51.892;8.384;2023-01-25T07:51:19;27.83;;;12.98;;
17382;SDS011;8809;51.892;8.384;2023-01-25T07:58:01;32.95;;;15.60;;
17382;SDS011;8809;51.892;8.384;2023-01-25T08:04:59;43.60;;;19.73;;
17382;SDS011;8809;51.892;8.384;2023-01-25T08:07:59;44.75;;;18.90;;
17382;SDS011;8809;51.892;8.384;2023-01-25T08:15:14;39.53;;;17.80;;
17382;SDS011;8809;51.892;8.384;2023-01-25T08:18:53;44.75;;;19.55;;
17382;SDS011;8809;51.892;8.384;2023-01-25T08:30:32;45.22;;;19.17;;
17382;SDS011;8809;51.892;8.384;2023-01-25T08:33:04;38.65;;;16.42;;
17382;SDS011;8809;51.892;8.384;2023-01-25T08:36:14;42.05;;;18.33;;
17382;SDS011;8809;51.892;8.384;2023-01-25T08:50:50;39.50;;;16.50;;
17382;SDS011;8809;51.892;8.384;2023-01-25T09:04:04;32.92;;;14.10;;
17382;SDS011;8809;51.892;8.384;2023-01-25T09:29:18;31.23;;;15.07;;
17382;SDS011;8809;51.892;8.384;2023-01-25T09:31:52;32.28;;;14.70;;
17382;SDS011;8809;51.892;8.384;2023-01-25T09:34:53;34.55;;;14.00;;
17382;SDS011;8809;51.892;8.384;2023-01-25T09:38:21;35.58;;;16.02;;
17382;SDS011;8809;51.892;8.384;2023-01-25T09:51:20;31.73;;;14.70;;
17382;SDS011;8809;51.892;8.384;2023-01-25T09:57:35;32.35;;;15.90;;
17382;SDS011;8809;51.892;8.384;2023-01-25T10:04:15;33.38;;;15.02;;
17382;SDS011;8809;51.892;8.384;2023-01-25T10:13:44;35.63;;;14.70;;
17382;SDS011;8809;51.892;8.384;2023-01-25T10:16:36;33.35;;;15.13;;
17382;SDS011;8809;51.892;8.384;2023-01-25T10:22:43;32.05;;;13.13;;
17382;SDS011;8809;51.892;8.384;2023-01-25T10:28:25;25.08;;;11.32;;
17382;SDS011;8809;51.892;8.384;2023-01-25T10:31:36;25.88;;;11.52;;
17382;SDS011;8809;51.892;8.384;2023-01-25T10:38:50;21.25;;;10.55;;
17382;SDS011;8809;51.892;8.384;2023-01-25T10:41:35;27.60;;;13.82;;
17382;SDS011;8809;51.892;8.384;2023-01-25T10:47:18;26.55;;;13.13;;
17382;SDS011;8809;51.892;8.384;2023-01-25T10:59:39;27.38;;;12.85;;
17382;SDS011;8809;51.892;8.384;2023-01-25T11:03:43;26.20;;;13.73;;
17382;SDS011;8809;51.892;8.384;2023-01-25T11:17:31;21.23;;;10.55;;
17382;SDS011;8809;51.892;8.384;2023-01-25T11:41:15;23.92;;;11.77;;
17382;SDS011;8809;51.892;8.384;2023-01-25T11:43:58;25.92;;;12.15;;
17382;SDS011;8809;51.892;8.384;2023-01-25T11:46:43;23.05;;;11.57;;
17382;SDS011;8809;51.892;8.384;2023-01-25T11:49:25;25.38;;;12.90;;
17382;SDS011;8809;51.892;8.384;2023-01-25T11:52:07;31.10;;;14.23;;
17382;SDS011;8809;51.892;8.384;2023-01-25T11:54:48;28.17;;;13.27;;
17382;SDS011;8809;51.892;8.384;2023-01-25T12:00:18;28.38;;;14.68;;
17382;SDS011;8809;51.892;8.384;2023-01-25T12:03:03;30.88;;;16.10;;
17382;SDS011;8809;51.892;8.384;2023-01-25T12:05:54;29.70;;;14.68;;
17382;SDS011;8809;51.892;8.384;2023-01-25T12:08:31;33.40;;;15.95;;
17382;SDS011;8809;51.892;8.384;2023-01-25T12:11:24;38.45;;;17.38;;
17382;SDS011;8809;51.892;8.384;2023-01-25T12:14:12;36.70;;;15.95;;
17382;SDS011;8809;51.892;8.384;2023-01-25T12:16:57;41.97;;;17.75;;
17382;SDS011;8809;51.892;8.384;2023-01-25T12:19:49;39.95;;;17.60;;
17382;SDS011;8809;51.892;8.384;2023-01-25T12:22:45;34.08;;;16.23;;
17382;SDS011;8809;51.892;8.384;2023-01-25T12:25:31;31.88;;;14.55;;
17382;SDS011;8809;51.892;8.384;2023-01-25T12:28:17;32.60;;;15.38;;
17382;SDS011;8809;51.892;8.384;2023-01-25T12:30:54;32.03;;;14.32;;
17382;SDS011;8809;51.892;8.384;2023-01-25T12:33:30;36.83;;;16.08;;
17382;SDS011;8809;51.892;8.384;2023-01-25T12:36:06;37.38;;;15.00;;
17382;SDS011;8809;51.892;8.384;2023-01-25T12:38:43;37.45;;;15.65;;
17382;SDS011;8809;51.892;8.384;2023-01-25T12:41:34;31.73;;;14.18;;
17382;SDS011;8809;51.892;8.384;2023-01-25T12:44:16;29.63;;;14.25;;
17382;SDS011;8809;51.892;8.384;2023-01-25T12:46:53;34.30;;;14.60;;
17382;SDS011;8809;51.892;8.384;2023-01-25T12:49:58;31.05;;;13.18;;
17382;SDS011;8809;51.892;8.384;2023-01-25T13:02:51;31.77;;;14.32;;
17382;SDS011;8809;51.892;8.384;2023-01-25T13:13:18;34.78;;;15.00;;
17382;SDS011;8809;51.892;8.384;2023-01-25T13:22:59;31.52;;;13.32;;
17382;SDS011;8809;51.892;8.384;2023-01-25T13:25:43;22.95;;;10.55;;
17382;SDS011;8809;51.892;8.384;2023-01-25T13:28:41;31.00;;;13.70;;
17382;SDS011;8809;51.892;8.384;2023-01-25T13:37:22;30.55;;;12.98;;
17382;SDS011;8809;51.892;8.384;2023-01-25T13:39:53;33.13;;;14.10;;
17382;SDS011;8809;51.892;8.384;2023-01-25T13:42:34;28.80;;;13.15;;
17382;SDS011;8809;51.892;8.384;2023-01-25T13:45:13;33.33;;;13.98;;
17382;SDS011;8809;51.892;8.384;2023-01-25T13:47:57;26.80;;;11.90;;
17382;SDS011;8809;51.892;8.384;2023-01-25T13:50:28;36.10;;;15.02;;
17382;SDS011;8809;51.892;8.384;2023-01-25T13:53:00;29.80;;;12.73;;
17382;SDS011;8809;51.892;8.384;2023-01-25T13:55:36;25.27;;;11.75;;
17382;SDS011;8809;51.892;8.384;2023-01-25T13:58:08;23.30;;;11.27;;
17382;SDS011;8809;51.892;8.384;2023-01-25T14:00:51;32.55;;;13.35;;
17382;SDS011;8809;51.892;8.384;2023-01-25T14:03:39;26.10;;;11.57;;
17382;SDS011;8809;51.892;8.384;2023-01-25T14:06:14;29.60;;;12.07;;
17382;SDS011;8809;51.892;8.384;2023-01-25T14:08:45;29.23;;;12.75;;
17382;SDS011;8809;51.892;8.384;2023-01-25T14:11:30;29.13;;;12.35;;
17382;SDS011;8809;51.892;8.384;2023-01-25T14:14:20;28.77;;;12.07;;
17382;SDS011;8809;51.892;8.384;2023-01-25T14:17:30;25.08;;;11.23;;
17382;SDS011;8809;51.892;8.384;2023-01-25T14:20:21;28.70;;;11.73;;
17382;SDS011;8809;51.892;8.384;2023-01-25T14:23:36;27.92;;;12.45;;
17382;SDS011;8809;51.892;8.384;2023-01-25T14:26:42;27.17;;;11.45;;
17382;SDS011;8809;51.892;8.384;2023-01-25T14:36:17;30.25;;;13.52;;
17382;SDS011;8809;51.892;8.384;2023-01-25T14:39:12;29.05;;;12.70;;
17382;SDS011;8809;51.892;8.384;2023-01-25T14:42:15;29.80;;;12.73;;
17382;SDS011;8809;51.892;8.384;2023-01-25T14:48:38;28.67;;;12.77;;
17382;SDS011;8809;51.892;8.384;2023-01-25T14:51:11;22.58;;;10.73;;
17382;SDS011;8809;51.892;8.384;2023-01-25T14:53:42;31.23;;;13.18;;
17382;SDS011;8809;51.892;8.384;2023-01-25T14:57:36;29.92;;;11.77;;
17382;SDS011;8809;51.892;8.384;2023-01-25T15:13:01;34.25;;;15.10;;
17382;SDS011;8809;51.892;8.384;2023-01-25T15:16:02;29.15;;;12.52;;
17382;SDS011;8809;51.892;8.384;2023-01-25T15:18:45;32.40;;;12.80;;
17382;SDS011;8809;51.892;8.384;2023-01-25T15:21:29;49.92;;;22.33;;
17382;SDS011;8809;51.892;8.384;2023-01-25T15:24:12;52.90;;;22.38;;
17382;SDS011;8809;51.892;8.384;2023-01-25T15:26:54;54.30;;;23.80;;
17382;SDS011;8809;51.892;8.384;2023-01-25T15:29:22;38.17;;;17.15;;
17382;SDS011;8809;51.892;8.384;2023-01-25T15:31:51;38.67;;;17.52;;
17382;SDS011;8809;51.892;8.384;2023-01-25T15:34:22;32.75;;;15.23;;
17382;SDS011;8809;51.892;8.384;2023-01-25T15:36:59;31.48;;;14.18;;
17382;SDS011;8809;51.892;8.384;2023-01-25T15:39:26;36.60;;;14.98;;
17382;SDS011;8809;51.892;8.384;2023-01-25T15:41:59;35.33;;;16.02;;
17382;SDS011;8809;51.892;8.384;2023-01-25T15:44:26;31.58;;;13.00;;
17382;SDS011;8809;51.892;8.384;2023-01-25T15:46:54;30.05;;;13.82;;
17382;SDS011;8809;51.892;8.384;2023-01-25T15:49:29;33.72;;;13.88;;
17382;SDS011;8809;51.892;8.384;2023-01-25T15:51:56;34.70;;;14.60;;
17382;SDS011;8809;51.892;8.384;2023-01-25T15:57:22;41.50;;;18.17;;
17382;SDS011;8809;51.892;8.384;2023-01-25T15:59:57;43.53;;;16.60;;
17382;SDS011;8809;51.892;8.384;2023-01-25T16:02:46;46.50;;;20.17;;
17382;SDS011;8809;51.892;8.384;2023-01-25T16:05:36;34.45;;;15.38;;
17382;SDS011;8809;51.892;8.384;2023-01-25T16:08:31;34.72;;;15.45;;
17382;SDS011;8809;51.892;8.384;2023-01-25T16:11:11;35.60;;;15.93;;
17382;SDS011;8809;51.892;8.384;2023-01-25T16:13:43;37.05;;;15.25;;
17382;SDS011;8809;51.892;8.384;2023-01-25T16:16:49;39.70;;;16.75;;
17382;SDS011;8809;51.892;8.384;2023-01-25T16:19:22;47.75;;;19.70;;
17382;SDS011;8809;51.892;8.384;2023-01-25T16:39:36;51.28;;;20.73;;
17382;SDS011;8809;51.892;8.384;2023-01-25T16:42:05;47.88;;;20.65;;
17382;SDS011;8809;51.892;8.384;2023-01-25T16:47:43;50.53;;;22.58;;
17382;SDS011;8809;51.892;8.384;2023-01-25T16:50:21;56.17;;;23.52;;
17382;SDS011;8809;51.892;8.384;2023-01-25T16:56:05;57.53;;;22.98;;
17382;SDS011;8809;51.892;8.384;2023-01-25T17:04:40;58.90;;;24.13;;
17382;SDS011;8809;51.892;8.384;2023-01-25T17:28:57;72.43;;;30.13;;
17382;SDS011;8809;51.892;8.384;2023-01-25T17:39:23;81.40;;;32.58;;
17382;SDS011;8809;51.892;8.384;2023-01-25T17:42:52;77.72;;;31.63;;
17382;SDS011;8809;51.892;8.384;2023-01-25T17:45:26;68.78;;;28.67;;
17382;SDS011;8809;51.892;8.384;2023-01-25T17:48:02;64.60;;;26.80;;
17382;SDS011;8809;51.892;8.384;2023-01-25T17:50:30;68.32;;;30.02;;
17382;SDS011;8809;51.892;8.384;2023-01-25T17:53:06;80.70;;;31.35;;
17382;SDS011;8809;51.892;8.384;2023-01-25T17:55:39;63.30;;;25.58;;
17382;SDS011;8809;51.892;8.384;2023-01-25T17:58:06;60.05;;;24.67;;
17382;SDS011;8809;51.892;8.384;2023-01-25T18:00:38;52.10;;;23.02;;
17382;SDS011;8809;51.892;8.384;2023-01-25T18:03:08;71.53;;;30.55;;
17382;SDS011;8809;51.892;8.384;2023-01-25T18:05:44;73.82;;;28.95;;
17382;SDS011;8809;51.892;8.384;2023-01-25T18:08:14;65.53;;;27.10;;
17382;SDS011;8809;51.892;8.384;2023-01-25T18:10:41;61.00;;;24.90;;
17382;SDS011;8809;51.892;8.384;2023-01-25T18:13:08;70.80;;;28.75;;
17382;SDS011;8809;51.892;8.384;2023-01-25T18:15:35;70.50;;;28.00;;
17382;SDS011;8809;51.892;8.384;2023-01-25T18:18:06;89.30;;;31.75;;
17382;SDS011;8809;51.892;8.384;2023-01-25T18:20:33;90.40;;;33.40;;
17382;SDS011;8809;51.892;8.384;2023-01-25T18:23:09;84.72;;;33.67;;
17382;SDS011;8809;51.892;8.384;2023-01-25T18:26:06;84.10;;;31.80;;
17382;SDS011;8809;51.892;8.384;2023-01-25T18:28:50;72.30;;;28.95;;
17382;SDS011;8809;51.892;8.384;2023-01-25T18:31:21;71.45;;;28.85;;
17382;SDS011;8809;51.892;8.384;2023-01-25T18:33:52;86.43;;;31.92;;
17382;SDS011;8809;51.892;8.384;2023-01-25T18:36:27;71.55;;;27.48;;
17382;SDS011;8809;51.892;8.384;2023-01-25T18:38:56;71.55;;;27.35;;
17382;SDS011;8809;51.892;8.384;2023-01-25T18:41:27;78.53;;;30.08;;
17382;SDS011;8809;51.892;8.384;2023-01-25T18:43:59;80.43;;;29.40;;
17382;SDS011;8809;51.892;8.384;2023-01-25T18:46:29;77.15;;;30.63;;
17382;SDS011;8809;51.892;8.384;2023-01-25T18:49:05;91.15;;;31.83;;
17382;SDS011;8809;51.892;8.384;2023-01-25T18:51:31;75.35;;;28.55;;
17382;SDS011;8809;51.892;8.384;2023-01-25T18:54:00;69.60;;;28.40;;
17382;SDS011;8809;51.892;8.384;2023-01-25T18:56:39;81.85;;;30.65;;
17382;SDS011;8809;51.892;8.384;2023-01-25T18:59:06;78.30;;;29.80;;
17382;SDS011;8809;51.892;8.384;2023-01-25T19:02:22;94.05;;;33.53;;
17382;SDS011;8809;51.892;8.384;2023-01-25T19:09:10;80.70;;;30.27;;
17382;SDS011;8809;51.892;8.384;2023-01-25T19:11:44;79.13;;;30.80;;
17382;SDS011;8809;51.892;8.384;2023-01-25T19:14:23;93.85;;;35.92;;
17382;SDS011;8809;51.892;8.384;2023-01-25T19:20:05;93.00;;;35.00;;
17382;SDS011;8809;51.892;8.384;2023-01-25T19:22:41;80.43;;;31.02;;
17382;SDS011;8809;51.892;8.384;2023-01-25T19:25:35;80.95;;;32.53;;
17382;SDS011;8809;51.892;8.384;2023-01-25T19:28:09;84.70;;;31.92;;
17382;SDS011;8809;51.892;8.384;2023-01-25T19:30:38;69.32;;;26.80;;
17382;SDS011;8809;51.892;8.384;2023-01-25T19:33:19;90.47;;;37.85;;
17382;SDS011;8809;51.892;8.384;2023-01-25T19:36:19;79.30;;;31.00;;
17382;SDS011;8809;51.892;8.384;2023-01-25T19:38:57;78.15;;;31.70;;
17382;SDS011;8809;51.892;8.384;2023-01-25T19:41:30;75.00;;;28.70;;
17382;SDS011;8809;51.892;8.384;2023-01-25T19:44:05;104.95;;;40.08;;
17382;SDS011;8809;51.892;8.384;2023-01-25T19:46:33;86.70;;;32.58;;
17382;SDS011;8809;51.892;8.384;2023-01-25T19:49:02;93.68;;;36.60;;
17382;SDS011;8809;51.892;8.384;2023-01-25T19:51:32;90.53;;;36.30;;
17382;SDS011;8809;51.892;8.384;2023-01-25T19:57:10;85.93;;;34.03;;
17382;SDS011;8809;51.892;8.384;2023-01-25T20:03:15;81.57;;;35.40;;
17382;SDS011;8809;51.892;8.384;2023-01-25T20:06:06;81.45;;;33.58;;
17382;SDS011;8809;51.892;8.384;2023-01-25T20:08:34;71.40;;;30.15;;
17382;SDS011;8809;51.892;8.384;2023-01-25T20:11:11;78.78;;;32.28;;
17382;SDS011;8809;51.892;8.384;2023-01-25T20:13:45;80.40;;;32.35;;
17382;SDS011;8809;51.892;8.384;2023-01-25T20:16:14;73.80;;;30.85;;
17382;SDS011;8809;51.892;8.384;2023-01-25T20:18:53;72.72;;;31.33;;
17382;SDS011;8809;51.892;8.384;2023-01-25T20:21:43;82.65;;;36.83;;
17382;SDS011;8809;51.892;8.384;2023-01-25T20:28:09;101.43;;;41.05;;
17382;SDS011;8809;51.892;8.384;2023-01-25T20:30:42;93.28;;;40.20;;
17382;SDS011;8809;51.892;8.384;2023-01-25T20:33:29;95.10;;;39.60;;
17382;SDS011;8809;51.892;8.384;2023-01-25T20:38:53;99.72;;;39.10;;
17382;SDS011;8809;51.892;8.384;2023-01-25T20:41:33;94.40;;;39.58;;
17382;SDS011;8809;51.892;8.384;2023-01-25T20:44:04;87.80;;;36.90;;
17382;SDS011;8809;51.892;8.384;2023-01-25T20:46:37;89.97;;;37.63;;
17382;SDS011;8809;51.892;8.384;2023-01-25T20:49:12;95.70;;;36.47;;
17382;SDS011;8809;51.892;8.384;2023-01-25T20:51:41;78.75;;;34.25;;
17382;SDS011;8809;51.892;8.384;2023-01-25T20:54:10;76.47;;;32.75;;
17382;SDS011;8809;51.892;8.384;2023-01-25T20:56:42;85.82;;;35.42;;
17382;SDS011;8809;51.892;8.384;2023-01-25T20:59:13;88.70;;;39.30;;
17382;SDS011;8809;51.892;8.384;2023-01-25T21:01:41;77.25;;;32.80;;
17382;SDS011;8809;51.892;8.384;2023-01-25T21:04:08;69.22;;;31.33;;
17382;SDS011;8809;51.892;8.384;2023-01-25T21:06:35;69.70;;;31.73;;
17382;SDS011;8809;51.892;8.384;2023-01-25T21:09:09;80.32;;;33.40;;
17382;SDS011;8809;51.892;8.384;2023-01-25T21:11:37;78.47;;;34.15;;
17382;SDS011;8809;51.892;8.384;2023-01-25T21:14:06;68.07;;;30.08;;
17382;SDS011;8809;51.892;8.384;2023-01-25T21:16:34;70.78;;;32.00;;
17382;SDS011;8809;51.892;8.384;2023-01-25T21:19:03;68.97;;;31.35;;
17382;SDS011;8809;51.892;8.384;2023-01-25T21:21:31;78.75;;;34.00;;
17382;SDS011;8809;51.892;8.384;2023-01-25T21:24:02;66.78;;;31.15;;
17382;SDS011;8809;51.892;8.384;2023-01-25T21:26:32;73.40;;;33.78;;
17382;SDS011;8809;51.892;8.384;2023-01-25T21:29:02;74.18;;;33.40;;
17382;SDS011;8809;51.892;8.384;2023-01-25T21:31:30;61.65;;;29.83;;
17382;SDS011;8809;51.892;8.384;2023-01-25T21:33:59;62.63;;;31.13;;
17382;SDS011;8809;51.892;8.384;2023-01-25T21:36:27;69.75;;;32.22;;
17382;SDS011;8809;51.892;8.384;2023-01-25T21:39:00;79.18;;;36.08;;
17382;SDS011;8809;51.892;8.384;2023-01-25T21:41:34;67.75;;;30.73;;
17382;SDS011;8809;51.892;8.384;2023-01-25T21:44:01;71.70;;;33.92;;
17382;SDS011;8809;51.892;8.384;2023-01-25T21:46:45;66.35;;;30.75;;
17382;SDS011;8809;51.892;8.384;2023-01-25T21:49:16;61.28;;;29.48;;
17382;SDS011;8809;51.892;8.384;2023-01-25T21:52:03;64.80;;;30.30;;
17382;SDS011;8809;51.892;8.384;2023-01-25T21:54:31;70.90;;;32.15;;
17382;SDS011;8809;51.892;8.384;2023-01-25T21:57:06;70.78;;;31.70;;
17382;SDS011;8809;51.892;8.384;2023-01-25T21:59:34;76.50;;;33.08;;